createdAt,value
2023-04-15T00:03:34.501Z,69.66
2023-04-15T00:08:38.040Z,70.17
2023-04-15T00:13:41.981Z,70.71
2023-04-15T00:18:44.824Z,72.33
2023-04-15T00:23:52.613Z,73.20
2023-04-15T00:28:55.604Z,73.19
2023-04-15T00:33:58.633Z,73.64
2023-04-15T00:39:02.871Z,73.83
2023-04-15T00:44:07.182Z,73.81
2023-04-15T00:49:09.958Z,74.45
2023-04-15T00:54:12.973Z,74.36
2023-04-15T00:59:15.919Z,74.30
2023-04-15T01:04:18.816Z,74.58
2023-04-15T01:09:22.572Z,75.41
2023-04-15T01:14:25.919Z,76.28
2023-04-15T01:19:28.946Z,76.34
2023-04-15T01:24:33.293Z,76.84
2023-04-15T01:29:38.602Z,76.99
2023-04-15T01:34:41.396Z,77.17
2023-04-15T01:39:44.754Z,78.01
2023-04-15T01:44:47.784Z,78.27
2023-04-15T01:49:50.521Z,78.22
2023-04-15T01:54:53.248Z,78.43
2023-04-15T01:59:56.129Z,78.70
2023-04-15T02:05:00.605Z,78.67
2023-04-15T02:10:04.151Z,79.08
2023-04-15T02:15:08.977Z,79.40
2023-04-15T02:20:12.059Z,80.49
2023-04-15T02:25:17.022Z,80.21
2023-04-15T02:30:19.969Z,80.13
2023-04-15T02:35:25.862Z,80.32
2023-04-15T02:40:29.068Z,80.45
2023-04-15T02:45:31.929Z,80.86
2023-04-15T02:50:34.761Z,80.97
2023-04-15T02:55:37.522Z,81.18
2023-04-15T03:00:40.487Z,81.41
2023-04-15T03:05:44.662Z,81.44
2023-04-15T03:10:47.656Z,81.35
2023-04-15T03:15:50.732Z,81.69
2023-04-15T03:20:53.680Z,81.46
2023-04-15T03:25:58.027Z,81.99
2023-04-15T03:31:01.029Z,81.91
2023-04-15T03:36:04.142Z,82.59
2023-04-15T03:41:07.583Z,82.40
2023-04-15T03:46:10.357Z,82.97
2023-04-15T03:51:13.163Z,83.27
2023-04-15T03:56:16.008Z,83.36
2023-04-15T04:01:19.496Z,83.76
2023-04-15T04:06:22.517Z,84.20
2023-04-15T04:11:25.307Z,84.59
2023-04-15T04:16:28.142Z,84.32
2023-04-15T04:21:31.603Z,84.70
2023-04-15T04:26:34.396Z,85.30
2023-04-15T04:31:37.276Z,85.06
2023-04-15T04:36:40.051Z,85.15
2023-04-15T04:41:42.874Z,85.46
2023-04-15T04:46:45.812Z,85.61
2023-04-15T04:51:48.967Z,85.15
2023-04-15T04:56:51.814Z,85.57
2023-04-15T05:01:54.755Z,86.08
2023-04-15T05:06:59.311Z,86.68
2023-04-15T05:12:03.036Z,86.46
2023-04-15T05:17:05.859Z,86.50
2023-04-15T05:22:08.779Z,86.64
2023-04-15T05:27:11.860Z,87.21
2023-04-15T05:32:14.801Z,87.10
2023-04-15T05:37:17.541Z,87.17
2023-04-15T05:42:20.394Z,87.70
2023-04-15T05:47:23.883Z,87.56
2023-04-15T05:52:27.398Z,87.62
2023-04-15T05:57:30.188Z,87.98
2023-04-15T06:02:33.468Z,88.21
2023-04-15T06:07:37.629Z,88.41
2023-04-15T06:12:40.467Z,88.21
2023-04-15T06:17:43.345Z,88.38
2023-04-15T06:22:46.156Z,88.86
2023-04-15T06:27:48.980Z,88.97
2023-04-15T06:32:52.737Z,88.84
2023-04-15T06:37:55.726Z,88.74
2023-04-15T06:42:58.544Z,88.63
2023-04-15T06:48:01.349Z,89.05
2023-04-15T06:53:04.156Z,89.11
2023-04-15T06:58:07.366Z,88.67
2023-04-15T07:03:11.428Z,88.90
2023-04-15T07:08:14.758Z,88.77
2023-04-15T07:13:17.569Z,89.57
2023-04-15T07:18:20.657Z,89.52
2023-04-15T07:23:23.633Z,89.57
2023-04-15T07:28:26.667Z,89.58
2023-04-15T07:33:29.538Z,89.61
2023-04-15T07:38:32.249Z,89.67
2023-04-15T07:43:35.060Z,89.77
2023-04-15T07:48:37.852Z,89.59
2023-04-15T07:53:40.803Z,90.28
2023-04-15T07:58:43.606Z,89.91
2023-04-15T08:03:47.289Z,89.69
2023-04-15T08:08:50.331Z,89.98
2023-04-15T08:13:53.349Z,89.82
2023-04-15T08:18:56.595Z,89.66
2023-04-15T08:24:00.303Z,90.03
2023-04-15T08:29:03.805Z,90.13
2023-04-15T08:34:06.823Z,89.73
2023-04-15T08:39:09.732Z,90.32
2023-04-15T08:44:12.531Z,90.56
2023-04-15T08:49:15.321Z,90.52
2023-04-15T08:54:18.126Z,91.07
2023-04-15T08:59:22.212Z,91.03
2023-04-15T09:04:25.081Z,90.94
2023-04-15T09:09:27.983Z,91.29
2023-04-15T09:14:32.779Z,91.41
2023-04-15T09:19:35.471Z,91.72
2023-04-15T09:24:40.957Z,92.67
2023-04-15T09:29:43.696Z,93.24
2023-04-15T09:34:46.884Z,93.59
2023-04-15T09:39:52.068Z,94.11
2023-04-15T09:44:55.171Z,94.33
2023-04-15T09:49:59.559Z,94.50
2023-04-15T09:55:02.705Z,94.75
2023-04-15T10:00:08.886Z,94.98
2023-04-15T10:05:12.929Z,95.10
2023-04-15T10:10:16.264Z,95.11
2023-04-15T10:15:19.166Z,95.02
2023-04-15T10:20:22.203Z,95.03
2023-04-15T10:25:25.519Z,95.42
2023-04-15T10:30:28.422Z,95.54
2023-04-15T10:35:32.273Z,95.70
2023-04-15T10:40:35.472Z,95.75
2023-04-15T10:45:38.345Z,96.24
2023-04-15T10:50:41.074Z,96.20
2023-04-15T10:55:43.861Z,97.00
2023-04-15T11:00:52.535Z,96.75
2023-04-15T11:05:56.431Z,96.75
2023-04-15T11:10:59.217Z,96.68
2023-04-15T11:16:02.856Z,97.07
2023-04-15T11:21:07.312Z,97.42
2023-04-15T11:26:12.331Z,97.36
2023-04-15T11:31:20.245Z,97.70
2023-04-15T11:36:27.893Z,97.83
2023-04-15T11:41:31.126Z,98.05
2023-04-15T11:46:33.929Z,98.20
2023-04-15T11:51:37.025Z,98.13
2023-04-15T11:56:39.960Z,97.98
2023-04-15T12:01:44.089Z,97.59
2023-04-15T12:06:47.231Z,97.80
2023-04-15T12:11:55.624Z,97.71
2023-04-15T12:17:00.396Z,97.46
2023-04-15T12:22:06.599Z,97.75
2023-04-15T12:27:15.478Z,96.96
2023-04-15T12:32:21.027Z,96.45
2023-04-15T12:37:24.895Z,96.31
2023-04-15T12:42:28.217Z,96.04
2023-04-15T12:47:31.330Z,95.65
2023-04-15T12:52:34.136Z,95.04
2023-04-15T12:57:36.909Z,94.22
2023-04-15T13:02:40.055Z,93.80
2023-04-15T13:07:43.079Z,92.98
2023-04-15T13:12:50.161Z,91.34
2023-04-15T13:17:53.105Z,91.31
2023-04-15T13:22:56.150Z,91.04
2023-04-15T13:27:59.362Z,91.65
2023-04-15T13:33:02.393Z,91.55
2023-04-15T13:38:05.398Z,90.92
2023-04-15T13:43:08.216Z,91.44
2023-04-15T13:48:11.202Z,91.20
2023-04-15T13:53:14.612Z,90.47
2023-04-15T13:58:17.473Z,91.00
2023-04-15T14:03:20.420Z,91.64
2023-04-15T14:08:23.679Z,91.01
2023-04-15T14:13:26.570Z,91.34
2023-04-15T14:18:30.477Z,91.35
2023-04-15T14:23:33.508Z,91.72
2023-04-15T14:28:38.387Z,91.14
2023-04-15T14:33:41.389Z,91.31
2023-04-15T14:38:44.090Z,91.65
2023-04-15T14:43:46.815Z,91.04
2023-04-15T14:48:49.579Z,89.31
2023-04-15T14:53:52.415Z,86.97
2023-04-15T14:58:55.677Z,85.20
2023-04-15T15:03:58.575Z,81.97
2023-04-15T15:09:02.167Z,82.46
2023-04-15T15:14:05.263Z,82.45
2023-04-15T15:19:08.029Z,82.95
2023-04-15T15:24:11.643Z,83.15
2023-04-15T15:29:14.375Z,83.48
2023-04-15T15:34:17.210Z,83.94
2023-04-15T15:39:19.993Z,84.20
2023-04-15T15:44:22.804Z,84.99
2023-04-15T15:49:26.066Z,85.58
2023-04-15T15:54:29.582Z,85.21
2023-04-15T15:59:33.170Z,85.72
2023-04-15T16:04:36.968Z,85.96
2023-04-15T16:09:41.225Z,85.57
2023-04-15T16:14:44.175Z,85.92
2023-04-15T16:19:58.351Z,85.94
2023-04-15T16:25:05.374Z,86.54
2023-04-15T16:30:09.212Z,86.73
2023-04-15T16:35:12.050Z,86.19
2023-04-15T16:40:15.115Z,86.57
2023-04-15T16:45:18.253Z,86.33
2023-04-15T16:50:21.006Z,86.49
2023-04-15T16:55:24.111Z,87.33
2023-04-15T17:00:27.237Z,87.33
2023-04-15T17:05:32.919Z,87.41
2023-04-15T17:10:36.278Z,87.83
2023-04-15T17:15:40.704Z,88.11
2023-04-15T17:20:43.900Z,88.22
2023-04-15T17:25:47.735Z,88.42
2023-04-15T17:30:51.023Z,88.63
2023-04-15T17:35:53.944Z,89.10
2023-04-15T17:40:56.856Z,89.15
2023-04-15T17:45:59.885Z,89.19
2023-04-15T17:51:02.877Z,89.58
2023-04-15T17:56:06.459Z,89.72
2023-04-15T18:01:09.967Z,89.86
2023-04-15T18:06:13.506Z,89.79
2023-04-15T18:11:17.668Z,89.86
2023-04-15T18:16:21.294Z,89.88
2023-04-15T18:21:25.079Z,89.81
2023-04-15T18:26:28.993Z,89.94
2023-04-15T18:31:33.198Z,90.09
2023-04-15T18:36:36.351Z,90.20
2023-04-15T18:41:39.183Z,90.08
2023-04-15T18:46:42.405Z,90.31
2023-04-15T18:51:45.585Z,90.41
2023-04-15T18:56:48.710Z,90.44
2023-04-15T19:01:51.612Z,90.42
2023-04-15T19:06:55.125Z,90.42
2023-04-15T19:11:57.914Z,90.74
2023-04-15T19:17:01.172Z,90.64
2023-04-15T19:22:04.698Z,90.59
2023-04-15T19:27:08.038Z,90.93
2023-04-15T19:32:10.914Z,90.76
2023-04-15T19:37:14.767Z,91.04
2023-04-15T19:42:18.143Z,91.05
2023-04-15T19:47:21.497Z,91.11
2023-04-15T19:52:24.597Z,91.52
2023-04-15T19:57:27.743Z,91.60
2023-04-15T20:02:30.885Z,91.54
2023-04-15T20:07:33.734Z,91.38
2023-04-15T20:12:49.232Z,91.68
2023-04-15T20:17:56.544Z,91.46
2023-04-15T20:22:59.387Z,92.25
2023-04-15T20:28:02.663Z,91.97
2023-04-15T20:33:07.996Z,91.79
2023-04-15T20:38:11.086Z,91.59
2023-04-15T20:43:13.948Z,91.84
2023-04-15T20:48:16.763Z,91.89
2023-04-15T20:53:19.954Z,92.32
2023-04-15T20:58:22.857Z,92.20
2023-04-15T21:03:25.812Z,92.22
2023-04-15T21:08:31.963Z,92.33
2023-04-15T21:13:34.894Z,92.17
2023-04-15T21:18:37.739Z,92.68
2023-04-15T21:23:42.164Z,92.37
2023-04-15T21:28:44.926Z,92.39
2023-04-15T21:33:47.870Z,92.74
2023-04-15T21:38:50.652Z,92.24
2023-04-15T21:43:53.775Z,92.84
2023-04-15T21:48:56.618Z,92.68
2023-04-15T21:53:59.629Z,92.97
2023-04-15T21:59:02.338Z,92.97
2023-04-15T22:04:07.474Z,93.18
2023-04-15T22:09:13.988Z,93.48
2023-04-15T22:14:17.404Z,92.86
2023-04-15T22:19:20.276Z,93.07
2023-04-15T22:24:33.539Z,93.52
2023-04-15T22:29:42.643Z,93.28
2023-04-15T22:34:45.442Z,93.15
2023-04-15T22:39:49.119Z,93.62
2023-04-15T22:44:52.015Z,93.59
2023-04-15T22:49:54.746Z,93.30
2023-04-15T22:54:57.931Z,93.41
2023-04-15T23:00:00.667Z,93.40
2023-04-15T23:05:11.960Z,93.75
2023-04-15T23:10:16.153Z,93.70
2023-04-15T23:15:19.024Z,93.85
2023-04-15T23:20:21.858Z,94.14
2023-04-15T23:25:24.686Z,94.04
2023-04-15T23:30:27.498Z,94.47
2023-04-15T23:35:30.432Z,94.33
2023-04-15T23:40:33.456Z,94.36
2023-04-15T23:45:36.218Z,94.51
2023-04-15T23:50:39.178Z,94.74
2023-04-15T23:55:41.970Z,95.09
